LIVE Streaming HD
Get Adobe Flash player
Annunci di Google
DNA SURF-SHOP
Annunci di Google
Annunci
BodemaAuto s.r.l
Annunci
Dati meteo stazione (refresh automatico ogni minuto)
Ostia(RM) VENTO: VELOCITÀ   PIOGGIA: QTA GIORNO TEMPERATURA: ATTUALE
SPOT: Kursaal Lido Ostia ---- Posizione su Googlemap:Latitudine: 41.71N Longitudine: 12.31E RAFFICA MASSIMA: QTA MENSILE: MASSIMA:
VELOCITÀ MEDIA: QTA ANNUALE: MINIMA:
DIREZIONE: UMIDITÀ: WIND CHILL:
TIPO: DEW POINT:
BEAUFORT: PRESSIONE:
I nostri partner
Annunci Privati
Ostia(RM) nelle ultime ore
Applica filtri in visualizzazione Intervallo delle letture nelle ultime

Ora Direzione Vento Velocita' Vento Media Vento Raffica Max. Temperatura Wind Chill Pioggia Pressione
07:47:11120 °(ESE)5.3 Kts4.6 Kts7.9 Kts24.3 °C25.75 °C0.27 mm1014.5 Hpa
07:41:05118 °(ESE)3.7 Kts2.83 Kts7.7 Kts24.2 °C25.78 °C0.27 mm1014.9 Hpa
07:35:46119 °(ESE)3.4 Kts3.26 Kts7.7 Kts24.1 °C25.68 °C0.27 mm1013.8 Hpa
07:31:39105 °(ESE)2.1 Kts3.7 Kts7.7 Kts24.1 °C25.87 °C0.27 mm1013.8 Hpa
07:25:28121 °(ESE)3.5 Kts5.26 Kts7.7 Kts23.8 °C25.34 °C0.27 mm1013.3 Hpa
07:21:23124 °(SE)6.4 Kts4 Kts7.7 Kts23.7 °C24.95 °C0 mm1014.5 Hpa
07:17:19109 °(ESE)4.3 Kts4.6 Kts6.9 Kts23.7 °C25.11 °C0 mm1013.8 Hpa
07:11:11128 °(SE)4.5 Kts4.13 Kts6.9 Kts23.6 °C24.99 °C0 mm1014.9 Hpa
07:07:05119 °(ESE)4.8 Kts4.13 Kts6.9 Kts23.6 °C24.97 °C0 mm1013.8 Hpa
07:00:5592 °(E)1.5 Kts3.13 Kts6.9 Kts23.6 °C25.43 °C0 mm1014.9 Hpa
06:56:50107 °(ESE)3.7 Kts3.06 Kts6.9 Kts23.5 °C24.98 °C0 mm1012.2 Hpa
06:50:42108 °(ESE)3.8 Kts3.8 Kts6.9 Kts23.6 °C25.05 °C0 mm1013.8 Hpa
06:46:3787 °(E)2.5 Kts4 Kts6.7 Kts23.5 °C25.12 °C0 mm1014.8 Hpa
06:40:2992 °(E)3.2 Kts3.53 Kts6.7 Kts23.6 °C25.13 °C0 mm1014.8 Hpa
06:36:25115 °(ESE)3.3 Kts3.83 Kts6.7 Kts23.5 °C25.02 °C0 mm1012 Hpa
06:31:16102 °(ESE)3.7 Kts3.7 Kts6.7 Kts23.5 °C24.98 °C0 mm1013.6 Hpa
06:27:11109 °(ESE)4.5 Kts3.03 Kts6.7 Kts23.5 °C24.87 °C0 mm1012.4 Hpa
06:21:0397 °(E)2.6 Kts3.86 Kts6.7 Kts23.5 °C25.1 °C0 mm1012.4 Hpa
06:16:5790 °(E)2.5 Kts3.93 Kts6.7 Kts23.5 °C25.12 °C0 mm1013.6 Hpa
06:10:5093 °(E)3.5 Kts2.76 Kts6.7 Kts23.5 °C24.99 °C0 mm1012.4 Hpa
06:06:44108 °(ESE)2.9 Kts3.33 Kts6.7 Kts23.5 °C25.08 °C0 mm1012.9 Hpa
06:00:37105 °(ESE)3.9 Kts3.9 Kts6.7 Kts23.5 °C24.93 °C0 mm1012.4 Hpa
05:55:3488 °(E)2.9 Kts3.76 Kts6.7 Kts23.6 °C25.19 °C0 mm1014.1 Hpa
05:51:29105 °(ESE)3.4 Kts4.36 Kts6.7 Kts23.5 °C24.99 °C0 mm1012.9 Hpa